sensor_id;sensor_type;location;lat;lon;timestamp;pressure;altitude;pressure_sealevel;temperature;humidity
69316;BME280;56445;43.552;5.034;2022-09-13T05:44:33;101178.47;;;38.40;25.31
69316;BME280;56445;43.552;5.034;2022-09-13T07:22:23;101213.88;;;39.77;25.12
69316;BME280;56445;43.552;5.034;2022-09-13T07:25:34;101205.78;;;39.79;25.14
69316;BME280;56445;43.552;5.034;2022-09-13T07:50:09;101213.91;;;39.91;25.29
69316;BME280;56445;43.552;5.034;2022-09-13T07:52:36;101197.34;;;39.86;25.03
69316;BME280;56445;43.552;5.034;2022-09-13T07:55:04;101230.50;;;40.03;25.01
69316;BME280;56445;43.552;5.034;2022-09-13T07:57:32;101232.50;;;40.10;25.24
69316;BME280;56445;43.552;5.034;2022-09-13T08:00:01;101231.31;;;40.11;25.66
69316;BME280;56445;43.552;5.034;2022-09-13T08:02:28;101226.47;;;40.15;25.22
69316;BME280;56445;43.552;5.034;2022-09-13T08:04:55;101218.78;;;40.09;25.24
69316;BME280;56445;43.552;5.034;2022-09-13T08:07:22;101232.13;;;40.19;25.27
69316;BME280;56445;43.552;5.034;2022-09-13T08:09:49;101214.38;;;40.11;25.13
69316;BME280;56445;43.552;5.034;2022-09-13T08:12:17;101237.78;;;40.26;25.14
69316;BME280;56445;43.552;5.034;2022-09-13T08:14:44;101215.56;;;40.17;25.42
69316;BME280;56445;43.552;5.034;2022-09-13T08:17:11;101222.44;;;40.20;25.30
69316;BME280;56445;43.552;5.034;2022-09-13T08:19:38;101245.06;;;40.34;25.27
69316;BME280;56445;43.552;5.034;2022-09-13T08:22:05;101201.84;;;40.19;25.15
69316;BME280;56445;43.552;5.034;2022-09-13T08:24:32;101209.09;;;40.24;24.91
69316;BME280;56445;43.552;5.034;2022-09-13T08:26:59;101220.81;;;40.26;25.04
69316;BME280;56445;43.552;5.034;2022-09-13T08:29:27;101228.50;;;40.29;25.18
69316;BME280;56445;43.552;5.034;2022-09-13T08:31:57;101224.88;;;40.25;25.09
69316;BME280;56445;43.552;5.034;2022-09-13T08:34:26;101222.44;;;40.20;25.21
69316;BME280;56445;43.552;5.034;2022-09-13T08:37:15;101257.19;;;40.42;25.16
69316;BME280;56445;43.552;5.034;2022-09-13T08:40:06;101246.69;;;40.42;25.30
69316;BME280;56445;43.552;5.034;2022-09-13T08:43:40;101258.81;;;40.54;25.42
69316;BME280;56445;43.552;5.034;2022-09-13T08:46:13;101263.66;;;40.53;25.10
69316;BME280;56445;43.552;5.034;2022-09-13T08:48:50;101254.38;;;40.46;24.93
69316;BME280;56445;43.552;5.034;2022-09-13T08:51:48;101269.31;;;40.57;25.40
69316;BME280;56445;43.552;5.034;2022-09-13T08:54:17;101271.75;;;40.58;25.12
69316;BME280;56445;43.552;5.034;2022-09-13T08:57:09;101264.03;;;40.66;25.37
69316;BME280;56445;43.552;5.034;2022-09-13T09:03:02;101259.63;;;40.90;25.44
69316;BME280;56445;43.552;5.034;2022-09-13T09:05:45;101244.66;;;40.82;25.17
69316;BME280;56445;43.552;5.034;2022-09-13T09:08:26;101277.34;;;41.05;25.27
69316;BME280;56445;43.552;5.034;2022-09-13T09:11:06;101268.06;;;41.01;25.16
69316;BME280;56445;43.552;5.034;2022-09-13T09:13:42;101266.03;;;41.05;25.15
69316;BME280;56445;43.552;5.034;2022-09-13T09:16:37;101265.63;;;41.03;25.60
69316;BME280;56445;43.552;5.034;2022-09-13T09:19:17;101265.63;;;41.07;25.33
69316;BME280;56445;43.552;5.034;2022-09-13T09:21:48;101265.59;;;41.17;25.46
69316;BME280;56445;43.552;5.034;2022-09-13T09:24:23;101250.66;;;41.24;25.30
69316;BME280;56445;43.552;5.034;2022-09-13T09:26:56;101237.31;;;41.25;25.15
69316;BME280;56445;43.552;5.034;2022-09-13T09:29:27;101245.38;;;41.26;25.23
69316;BME280;56445;43.552;5.034;2022-09-13T09:37:38;101242.50;;;41.37;25.21
69316;BME280;56445;43.552;5.034;2022-09-13T09:40:12;101263.09;;;41.48;25.15
69316;BME280;56445;43.552;5.034;2022-09-13T09:42:45;101247.34;;;41.40;25.23
69316;BME280;56445;43.552;5.034;2022-09-13T09:45:30;101262.69;;;41.46;25.34
69316;BME280;56445;43.552;5.034;2022-09-13T09:48:04;101250.59;;;41.31;25.24
69316;BME280;56445;43.552;5.034;2022-09-13T09:50:42;101258.63;;;41.47;25.43
69316;BME280;56445;43.552;5.034;2022-09-13T09:53:26;101261.03;;;41.56;25.33
69316;BME280;56445;43.552;5.034;2022-09-13T09:56:25;101248.50;;;41.60;25.28
69316;BME280;56445;43.552;5.034;2022-09-13T09:58:54;101239.97;;;41.68;24.99
69316;BME280;56445;43.552;5.034;2022-09-13T10:01:28;101249.13;;;41.90;25.26
69316;BME280;56445;43.552;5.034;2022-09-13T10:04:19;101245.53;;;41.86;25.33
69316;BME280;56445;43.552;5.034;2022-09-13T10:06:47;101260.44;;;41.93;25.24
69316;BME280;56445;43.552;5.034;2022-09-13T10:09:20;101257.56;;;42.00;25.05
69316;BME280;56445;43.552;5.034;2022-09-13T10:11:55;101236.88;;;42.11;25.15
69316;BME280;56445;43.552;5.034;2022-09-13T10:14:44;101256.81;;;42.52;25.18
69316;BME280;56445;43.552;5.034;2022-09-13T10:17:26;101238.41;;;42.68;25.48
69316;BME280;56445;43.552;5.034;2022-09-13T10:19:59;101259.34;;;42.85;25.08
69316;BME280;56445;43.552;5.034;2022-09-13T10:22:29;101260.50;;;42.91;25.47
69316;BME280;56445;43.552;5.034;2022-09-13T10:25:25;101266.56;;;42.93;25.12
69316;BME280;56445;43.552;5.034;2022-09-13T10:27:57;101252.56;;;42.71;25.09
69316;BME280;56445;43.552;5.034;2022-09-13T10:30:37;101278.03;;;42.78;25.06
69316;BME280;56445;43.552;5.034;2022-09-13T10:40:16;101270.16;;;42.55;25.11
69316;BME280;56445;43.552;5.034;2022-09-13T10:46:05;101256.19;;;42.75;24.89
69316;BME280;56445;43.552;5.034;2022-09-13T12:20:38;101222.72;;;43.93;24.35
69316;BME280;56445;43.552;5.034;2022-09-13T12:23:15;101241.97;;;44.09;24.37
69316;BME280;56445;43.552;5.034;2022-09-13T13:06:52;101147.34;;;43.54;24.53
69316;BME280;56445;43.552;5.034;2022-09-13T13:09:41;101144.78;;;43.91;24.35
69316;BME280;56445;43.552;5.034;2022-09-13T13:12:30;101136.06;;;44.02;24.33
69316;BME280;56445;43.552;5.034;2022-09-13T13:15:01;101127.38;;;44.12;24.44
69316;BME280;56445;43.552;5.034;2022-09-13T13:17:44;101131.09;;;44.09;24.39
69316;BME280;56445;43.552;5.034;2022-09-13T13:20:40;101138.97;;;43.98;24.36
69316;BME280;56445;43.552;5.034;2022-09-13T13:26:03;101134.03;;;43.79;24.31
69316;BME280;56445;43.552;5.034;2022-09-13T13:36:28;101118.28;;;43.97;24.16
69316;BME280;56445;43.552;5.034;2022-09-13T13:39:01;101117.28;;;43.84;24.23
69316;BME280;56445;43.552;5.034;2022-09-13T13:43:59;101103.19;;;43.77;24.46
69316;BME280;56445;43.552;5.034;2022-09-13T13:46:30;101117.97;;;44.15;24.30
69316;BME280;56445;43.552;5.034;2022-09-13T13:59:49;101121.28;;;44.78;24.63
69316;BME280;56445;43.552;5.034;2022-09-13T14:02:21;101132.97;;;45.03;24.43
69316;BME280;56445;43.552;5.034;2022-09-13T14:10:23;101138.41;;;45.14;24.13
69316;BME280;56445;43.552;5.034;2022-09-13T14:19:09;101143.00;;;45.81;24.26
69316;BME280;56445;43.552;5.034;2022-09-13T14:21:44;101148.78;;;45.94;24.09
69316;BME280;56445;43.552;5.034;2022-09-13T14:24:20;101144.06;;;46.03;24.15
69316;BME280;56445;43.552;5.034;2022-09-13T14:26:52;101145.25;;;46.06;24.08
69316;BME280;56445;43.552;5.034;2022-09-13T14:29:22;101121.44;;;45.96;24.19
69316;BME280;56445;43.552;5.034;2022-09-13T14:31:53;101121.34;;;46.00;24.25
69316;BME280;56445;43.552;5.034;2022-09-13T14:34:30;101116.78;;;46.02;24.37
69316;BME280;56445;43.552;5.034;2022-09-13T14:37:03;101140.41;;;46.19;23.96
69316;BME280;56445;43.552;5.034;2022-09-13T14:39:32;101149.63;;;46.40;24.25
69316;BME280;56445;43.552;5.034;2022-09-13T14:42:13;101134.09;;;46.41;23.88
69316;BME280;56445;43.552;5.034;2022-09-13T14:44:45;101123.16;;;46.39;23.76
69316;BME280;56445;43.552;5.034;2022-09-13T14:50:12;101138.66;;;46.55;23.85
69316;BME280;56445;43.552;5.034;2022-09-13T14:52:47;101136.63;;;46.55;23.49
69316;BME280;56445;43.552;5.034;2022-09-13T14:55:21;101122.34;;;46.55;23.84
69316;BME280;56445;43.552;5.034;2022-09-13T14:57:53;101142.00;;;46.66;23.71
69316;BME280;56445;43.552;5.034;2022-09-13T15:00:24;101113.78;;;46.55;23.50
69316;BME280;56445;43.552;5.034;2022-09-13T15:03:02;101108.06;;;46.55;23.87
69316;BME280;56445;43.552;5.034;2022-09-13T15:05:32;101109.91;;;46.62;23.72
69316;BME280;56445;43.552;5.034;2022-09-13T15:08:41;101119.50;;;46.68;23.81
69316;BME280;56445;43.552;5.034;2022-09-13T15:11:25;101108.72;;;46.46;23.72
69316;BME280;56445;43.552;5.034;2022-09-13T15:14:22;101117.66;;;46.32;23.74
69316;BME280;56445;43.552;5.034;2022-09-13T15:16:51;101115.91;;;46.22;23.84
69316;BME280;56445;43.552;5.034;2022-09-13T15:19:28;101111.84;;;46.06;23.87
69316;BME280;56445;43.552;5.034;2022-09-13T15:22:10;101098.53;;;45.83;23.96
69316;BME280;56445;43.552;5.034;2022-09-13T15:24:43;101089.78;;;45.58;24.00
69316;BME280;56445;43.552;5.034;2022-09-13T15:30:00;101089.75;;;45.25;23.64
69316;BME280;56445;43.552;5.034;2022-09-13T15:32:30;101094.81;;;45.17;23.62
69316;BME280;56445;43.552;5.034;2022-09-13T15:34:59;101101.56;;;45.07;23.83
69316;BME280;56445;43.552;5.034;2022-09-13T15:37:37;101089.25;;;44.73;23.78
69316;BME280;56445;43.552;5.034;2022-09-13T15:40:24;101085.00;;;44.42;23.71
69316;BME280;56445;43.552;5.034;2022-09-13T15:42:52;101085.63;;;44.29;23.95
69316;BME280;56445;43.552;5.034;2022-09-13T15:45:20;101073.00;;;44.10;24.15
69316;BME280;56445;43.552;5.034;2022-09-13T15:47:50;101071.19;;;43.96;23.74
69316;BME280;56445;43.552;5.034;2022-09-13T15:50:23;101086.78;;;43.88;24.00
69316;BME280;56445;43.552;5.034;2022-09-13T15:52:54;101092.69;;;43.74;23.72
69316;BME280;56445;43.552;5.034;2022-09-13T15:55:21;101072.81;;;43.47;23.70
69316;BME280;56445;43.552;5.034;2022-09-13T15:57:49;101063.38;;;43.26;23.93
69316;BME280;56445;43.552;5.034;2022-09-13T16:00:22;101065.88;;;43.21;23.99
69316;BME280;56445;43.552;5.034;2022-09-13T16:02:50;101074.91;;;43.15;23.81
69316;BME280;56445;43.552;5.034;2022-09-13T16:05:18;101072.16;;;43.08;23.80
69316;BME280;56445;43.552;5.034;2022-09-13T16:07:45;101054.63;;;42.86;23.81
69316;BME280;56445;43.552;5.034;2022-09-13T16:10:19;101063.97;;;42.79;24.16
69316;BME280;56445;43.552;5.034;2022-09-13T16:12:47;101054.34;;;42.73;23.93
69316;BME280;56445;43.552;5.034;2022-09-13T16:15:14;101062.44;;;42.75;23.98
69316;BME280;56445;43.552;5.034;2022-09-13T16:17:41;101049.25;;;42.61;24.21
69316;BME280;56445;43.552;5.034;2022-09-13T16:20:13;101045.69;;;42.53;24.31
69316;BME280;56445;43.552;5.034;2022-09-13T16:22:41;101035.25;;;42.43;24.20
69316;BME280;56445;43.552;5.034;2022-09-13T16:25:11;101061.91;;;42.53;24.09
69316;BME280;56445;43.552;5.034;2022-09-13T16:27:40;101039.81;;;42.33;24.01
69316;BME280;56445;43.552;5.034;2022-09-13T16:30:10;101055.94;;;42.40;23.99
69316;BME280;56445;43.552;5.034;2022-09-13T16:32:39;101022.50;;;42.24;24.15
69316;BME280;56445;43.552;5.034;2022-09-13T16:35:08;101033.41;;;42.26;24.20
69316;BME280;56445;43.552;5.034;2022-09-13T16:37:36;101026.59;;;42.19;24.29
69316;BME280;56445;43.552;5.034;2022-09-13T16:40:03;101020.63;;;42.10;24.21
69316;BME280;56445;43.552;5.034;2022-09-13T16:42:31;101035.63;;;42.11;24.44
69316;BME280;56445;43.552;5.034;2022-09-13T16:44:59;101027.94;;;42.08;24.42
69316;BME280;56445;43.552;5.034;2022-09-13T16:47:26;101030.34;;;42.13;24.26
69316;BME280;56445;43.552;5.034;2022-09-13T16:49:53;101011.47;;;41.95;24.26
69316;BME280;56445;43.552;5.034;2022-09-13T16:52:20;101009.03;;;41.94;23.93
69316;BME280;56445;43.552;5.034;2022-09-13T16:54:47;101002.19;;;41.91;24.21
69316;BME280;56445;43.552;5.034;2022-09-13T16:57:16;101011.53;;;41.88;24.03
69316;BME280;56445;43.552;5.034;2022-09-13T16:59:43;101049.47;;;41.98;24.40
69316;BME280;56445;43.552;5.034;2022-09-13T17:02:12;101034.75;;;41.72;24.21
69316;BME280;56445;43.552;5.034;2022-09-13T17:04:39;101033.19;;;41.68;24.43
69316;BME280;56445;43.552;5.034;2022-09-13T17:07:07;101041.66;;;41.71;24.60
69316;BME280;56445;43.552;5.034;2022-09-13T17:09:34;101018.28;;;41.53;24.30
69316;BME280;56445;43.552;5.034;2022-09-13T17:12:01;101011.47;;;41.47;24.78
69316;BME280;56445;43.552;5.034;2022-09-13T17:14:29;101023.09;;;41.63;24.48
69316;BME280;56445;43.552;5.034;2022-09-13T17:16:56;101017.84;;;41.61;24.49
69316;BME280;56445;43.552;5.034;2022-09-13T17:19:28;100999.28;;;41.53;24.42
69316;BME280;56445;43.552;5.034;2022-09-13T17:22:01;101034.44;;;41.59;24.54
69316;BME280;56445;43.552;5.034;2022-09-13T17:24:29;101046.59;;;41.56;24.54
69316;BME280;56445;43.552;5.034;2022-09-13T17:26:57;101026.50;;;41.40;24.43
69316;BME280;56445;43.552;5.034;2022-09-13T17:29:25;101025.72;;;41.36;24.21
69316;BME280;56445;43.552;5.034;2022-09-13T17:32:01;101007.63;;;41.22;24.31
69316;BME280;56445;43.552;5.034;2022-09-13T17:34:30;101021.78;;;41.22;24.52
69316;BME280;56445;43.552;5.034;2022-09-13T17:37:06;101029.44;;;41.26;24.56
69316;BME280;56445;43.552;5.034;2022-09-13T17:39:33;101044.72;;;41.35;24.54
69316;BME280;56445;43.552;5.034;2022-09-13T17:42:05;101041.94;;;41.32;24.52
69316;BME280;56445;43.552;5.034;2022-09-13T17:44:37;101034.22;;;41.36;24.58
69316;BME280;56445;43.552;5.034;2022-09-13T17:47:05;101041.94;;;41.28;24.66
69316;BME280;56445;43.552;5.034;2022-09-13T17:49:37;101041.97;;;41.17;24.35
69316;BME280;56445;43.552;5.034;2022-09-13T17:52:10;101024.34;;;40.95;24.64
69316;BME280;56445;43.552;5.034;2022-09-13T17:54:38;101026.38;;;40.91;24.77
69316;BME280;56445;43.552;5.034;2022-09-13T17:57:05;101061.47;;;41.08;24.84
69316;BME280;56445;43.552;5.034;2022-09-13T17:59:32;101069.56;;;41.02;24.35
69316;BME280;56445;43.552;5.034;2022-09-13T18:02:00;101037.38;;;40.71;24.38
69316;BME280;56445;43.552;5.034;2022-09-13T18:04:27;101075.72;;;40.90;24.72
69316;BME280;56445;43.552;5.034;2022-09-13T18:06:55;101072.50;;;40.88;24.73
69316;BME280;56445;43.552;5.034;2022-09-13T18:09:25;101034.94;;;40.70;24.82
69316;BME280;56445;43.552;5.034;2022-09-13T18:11:52;101057.19;;;40.78;24.83
69316;BME280;56445;43.552;5.034;2022-09-13T18:14:20;101043.84;;;40.75;24.83
69316;BME280;56445;43.552;5.034;2022-09-13T18:16:47;101050.28;;;40.79;24.47
69316;BME280;56445;43.552;5.034;2022-09-13T18:19:21;101083.81;;;40.88;24.82
69316;BME280;56445;43.552;5.034;2022-09-13T18:22:09;101048.75;;;40.60;25.08
69316;BME280;56445;43.552;5.034;2022-09-13T18:24:36;101077.75;;;40.72;24.81
69316;BME280;56445;43.552;5.034;2022-09-13T18:27:03;101078.59;;;40.72;24.87
69316;BME280;56445;43.552;5.034;2022-09-13T18:29:30;101068.09;;;40.69;24.95
69316;BME280;56445;43.552;5.034;2022-09-13T18:31:58;101080.59;;;40.68;24.80
69316;BME280;56445;43.552;5.034;2022-09-13T18:34:25;101070.13;;;40.58;24.66
69316;BME280;56445;43.552;5.034;2022-09-13T18:36:53;101063.28;;;40.59;24.81
69316;BME280;56445;43.552;5.034;2022-09-13T18:39:21;101103.63;;;40.81;24.90
69316;BME280;56445;43.552;5.034;2022-09-13T18:41:48;101098.78;;;40.74;24.92
69316;BME280;56445;43.552;5.034;2022-09-13T18:44:19;101118.16;;;40.87;24.87
69316;BME280;56445;43.552;5.034;2022-09-13T18:46:49;101129.09;;;40.85;25.12
69316;BME280;56445;43.552;5.034;2022-09-13T18:49:18;101123.41;;;40.70;24.96
69316;BME280;56445;43.552;5.034;2022-09-13T18:51:46;101129.06;;;40.74;24.83
69316;BME280;56445;43.552;5.034;2022-09-13T18:54:16;101127.47;;;40.66;24.86
69316;BME280;56445;43.552;5.034;2022-09-13T18:56:46;101126.28;;;40.63;24.81
69316;BME280;56445;43.552;5.034;2022-09-13T18:59:13;101136.75;;;40.73;25.07
69316;BME280;56445;43.552;5.034;2022-09-13T19:01:42;101143.25;;;40.77;24.94
69316;BME280;56445;43.552;5.034;2022-09-13T19:04:16;101126.69;;;40.69;24.82
69316;BME280;56445;43.552;5.034;2022-09-13T19:06:45;101115.00;;;40.56;24.86
69316;BME280;56445;43.552;5.034;2022-09-13T19:09:13;101138.38;;;40.74;24.95
69316;BME280;56445;43.552;5.034;2022-09-13T19:11:43;101128.72;;;40.64;25.15
69316;BME280;56445;43.552;5.034;2022-09-13T19:14:22;101131.94;;;40.67;24.93
69316;BME280;56445;43.552;5.034;2022-09-13T19:16:52;101136.78;;;40.66;25.05
69316;BME280;56445;43.552;5.034;2022-09-13T19:19:20;101122.25;;;40.60;25.04
69316;BME280;56445;43.552;5.034;2022-09-13T19:21:47;101125.88;;;40.61;25.22
69316;BME280;56445;43.552;5.034;2022-09-13T19:24:15;101132.75;;;40.67;25.32
69316;BME280;56445;43.552;5.034;2022-09-13T19:26:47;101122.22;;;40.71;25.14
69316;BME280;56445;43.552;5.034;2022-09-13T19:29:21;101124.66;;;40.73;25.21
69316;BME280;56445;43.552;5.034;2022-09-13T19:31:49;101133.53;;;40.71;25.22
69316;BME280;56445;43.552;5.034;2022-09-13T19:34:20;101125.44;;;40.70;25.20
69316;BME280;56445;43.552;5.034;2022-09-13T19:36:53;101119.44;;;40.60;25.15
69316;BME280;56445;43.552;5.034;2022-09-13T19:39:31;101124.66;;;40.62;25.18
69316;BME280;56445;43.552;5.034;2022-09-13T19:42:01;101101.28;;;40.51;25.29
69316;BME280;56445;43.552;5.034;2022-09-13T19:44:29;101084.72;;;40.46;25.18
69316;BME280;56445;43.552;5.034;2022-09-13T19:46:56;101102.06;;;40.55;25.14
69316;BME280;56445;43.552;5.034;2022-09-13T19:49:43;101099.66;;;40.50;25.24
69316;BME280;56445;43.552;5.034;2022-09-13T19:52:10;101109.38;;;40.41;25.36
69316;BME280;56445;43.552;5.034;2022-09-13T19:54:37;101109.78;;;40.40;25.17
69316;BME280;56445;43.552;5.034;2022-09-13T19:57:04;101106.97;;;40.33;25.00
69316;BME280;56445;43.552;5.034;2022-09-13T19:59:33;101106.16;;;40.36;25.17
69316;BME280;56445;43.552;5.034;2022-09-13T20:02:00;101090.78;;;40.26;25.44
69316;BME280;56445;43.552;5.034;2022-09-13T20:04:27;101119.06;;;40.40;25.24
69316;BME280;56445;43.552;5.034;2022-09-13T20:06:55;101094.03;;;40.32;25.21
69316;BME280;56445;43.552;5.034;2022-09-13T20:09:23;101091.22;;;40.32;25.23
69316;BME280;56445;43.552;5.034;2022-09-13T20:11:50;101092.03;;;40.36;25.13
69316;BME280;56445;43.552;5.034;2022-09-13T20:14:19;101091.19;;;40.42;25.23
69316;BME280;56445;43.552;5.034;2022-09-13T20:16:46;101072.63;;;40.38;25.21
69316;BME280;56445;43.552;5.034;2022-09-13T20:19:16;101074.63;;;40.44;25.20
69316;BME280;56445;43.552;5.034;2022-09-13T20:22:06;101039.13;;;40.33;25.11
69316;BME280;56445;43.552;5.034;2022-09-13T20:24:33;101036.69;;;40.28;25.06
69316;BME280;56445;43.552;5.034;2022-09-13T20:27:02;101066.56;;;40.36;25.17
69316;BME280;56445;43.552;5.034;2022-09-13T20:29:35;101046.38;;;40.27;25.53
69316;BME280;56445;43.552;5.034;2022-09-13T20:32:15;101022.97;;;40.22;25.38
69316;BME280;56445;43.552;5.034;2022-09-13T20:34:48;101003.63;;;40.14;25.64
69316;BME280;56445;43.552;5.034;2022-09-13T20:37:18;101015.72;;;40.11;25.50
69316;BME280;56445;43.552;5.034;2022-09-13T20:39:45;101052.44;;;40.25;25.49
69316;BME280;56445;43.552;5.034;2022-09-13T20:42:15;101020.19;;;40.12;25.47
69316;BME280;56445;43.552;5.034;2022-09-13T20:44:43;101025.78;;;40.22;25.40
69316;BME280;56445;43.552;5.034;2022-09-13T20:47:14;101036.69;;;40.24;25.13
69316;BME280;56445;43.552;5.034;2022-09-13T20:49:41;101018.94;;;40.23;25.53
69316;BME280;56445;43.552;5.034;2022-09-13T20:52:08;101029.03;;;40.32;25.44
69316;BME280;56445;43.552;5.034;2022-09-13T20:54:37;101016.91;;;40.24;25.51
69316;BME280;56445;43.552;5.034;2022-09-13T20:57:04;101013.28;;;40.23;25.45
69316;BME280;56445;43.552;5.034;2022-09-13T20:59:32;101008.44;;;40.20;25.39
69316;BME280;56445;43.552;5.034;2022-09-13T21:01:59;101014.09;;;40.31;25.61
69316;BME280;56445;43.552;5.034;2022-09-13T21:04:26;101016.06;;;40.31;25.46
69316;BME280;56445;43.552;5.034;2022-09-13T21:06:55;100987.06;;;40.16;25.62
69316;BME280;56445;43.552;5.034;2022-09-13T21:09:44;101003.16;;;40.30;25.50
69316;BME280;56445;43.552;5.034;2022-09-13T21:15:04;100987.47;;;40.18;25.58
69316;BME280;56445;43.552;5.034;2022-09-13T21:17:37;100981.00;;;40.17;25.71
69316;BME280;56445;43.552;5.034;2022-09-13T21:20:05;100970.09;;;40.16;25.20
69316;BME280;56445;43.552;5.034;2022-09-13T21:25:35;100985.88;;;40.13;25.49
69316;BME280;56445;43.552;5.034;2022-09-13T21:28:02;100995.53;;;40.23;25.58
69316;BME280;56445;43.552;5.034;2022-09-13T21:30:29;100998.31;;;40.30;25.13
69316;BME280;56445;43.552;5.034;2022-09-13T21:35:37;100990.66;;;40.27;25.49
69316;BME280;56445;43.552;5.034;2022-09-13T21:40:42;100982.97;;;40.28;25.42
69316;BME280;56445;43.552;5.034;2022-09-13T21:49:32;100970.91;;;40.16;25.52
69316;BME280;56445;43.552;5.034;2022-09-13T21:59:03;100964.88;;;40.11;25.72
69316;BME280;56445;43.552;5.034;2022-09-13T22:04:05;100940.63;;;40.17;25.69
69316;BME280;56445;43.552;5.034;2022-09-13T22:06:33;100950.69;;;40.25;25.33
69316;BME280;56445;43.552;5.034;2022-09-13T22:09:03;100940.59;;;40.24;25.35
69316;BME280;56445;43.552;5.034;2022-09-13T22:11:35;100968.03;;;40.41;25.13
69316;BME280;56445;43.552;5.034;2022-09-13T22:14:05;100952.28;;;40.30;25.15
69316;BME280;56445;43.552;5.034;2022-09-13T22:16:36;100976.91;;;40.43;25.41
69316;BME280;56445;43.552;5.034;2022-09-13T22:19:06;100975.66;;;40.44;25.11
69316;BME280;56445;43.552;5.034;2022-09-13T22:21:37;100973.66;;;40.45;25.47
69316;BME280;56445;43.552;5.034;2022-09-13T22:24:06;100953.53;;;40.25;25.29
69316;BME280;56445;43.552;5.034;2022-09-13T22:26:36;100976.91;;;40.43;25.23
69316;BME280;56445;43.552;5.034;2022-09-13T22:29:04;100951.09;;;40.34;25.57
69316;BME280;56445;43.552;5.034;2022-09-13T22:31:45;100981.69;;;40.54;25.45
69316;BME280;56445;43.552;5.034;2022-09-13T22:34:16;100934.97;;;40.31;25.21
69316;BME280;56445;43.552;5.034;2022-09-13T22:36:56;100970.38;;;40.57;25.55
69316;BME280;56445;43.552;5.034;2022-09-13T22:39:24;100946.97;;;40.50;25.43
69316;BME280;56445;43.552;5.034;2022-09-13T22:41:51;100946.19;;;40.49;25.25
69316;BME280;56445;43.552;5.034;2022-09-13T22:44:18;100953.88;;;40.49;25.49
69316;BME280;56445;43.552;5.034;2022-09-13T22:47:05;100965.09;;;40.59;25.16
69316;BME280;56445;43.552;5.034;2022-09-13T22:49:36;100976.41;;;40.63;25.13
69316;BME280;56445;43.552;5.034;2022-09-13T22:52:06;100973.22;;;40.54;25.35
69316;BME280;56445;43.552;5.034;2022-09-13T22:54:41;100974.78;;;40.62;25.19
69316;BME280;56445;43.552;5.034;2022-09-13T22:57:08;100970.34;;;40.61;25.11
69316;BME280;56445;43.552;5.034;2022-09-13T22:59:35;100970.38;;;40.57;25.04
69316;BME280;56445;43.552;5.034;2022-09-13T23:02:02;100944.63;;;40.37;25.07
69316;BME280;56445;43.552;5.034;2022-09-13T23:07:56;100986.13;;;40.58;25.28
69316;BME280;56445;43.552;5.034;2022-09-13T23:10:24;100947.44;;;40.37;24.91
69316;BME280;56445;43.552;5.034;2022-09-13T23:12:53;100958.28;;;40.46;25.17
69316;BME280;56445;43.552;5.034;2022-09-13T23:15:27;100951.06;;;40.41;25.17
69316;BME280;56445;43.552;5.034;2022-09-13T23:17:54;100963.53;;;40.48;25.20
69316;BME280;56445;43.552;5.034;2022-09-13T23:20:21;100949.47;;;40.37;24.88
69316;BME280;56445;43.552;5.034;2022-09-13T23:22:50;100968.81;;;40.46;25.17
69316;BME280;56445;43.552;5.034;2022-09-13T23:25:17;100988.56;;;40.53;25.07
69316;BME280;56445;43.552;5.034;2022-09-13T23:27:47;101001.88;;;40.56;25.05
69316;BME280;56445;43.552;5.034;2022-09-13T23:30:15;101007.13;;;40.54;24.83
69316;BME280;56445;43.552;5.034;2022-09-13T23:32:52;100970.50;;;40.25;24.95
69316;BME280;56445;43.552;5.034;2022-09-13T23:35:32;100990.25;;;40.36;24.72
69316;BME280;56445;43.552;5.034;2022-09-13T23:37:59;100991.06;;;40.36;25.00
69316;BME280;56445;43.552;5.034;2022-09-13T23:40:26;100991.03;;;40.40;25.04
69316;BME280;56445;43.552;5.034;2022-09-13T23:42:56;100977.75;;;40.33;25.03
69316;BME280;56445;43.552;5.034;2022-09-13T23:45:24;100980.97;;;40.35;25.05
69316;BME280;56445;43.552;5.034;2022-09-13T23:47:52;100961.97;;;40.29;25.17
69316;BME280;56445;43.552;5.034;2022-09-13T23:50:20;100969.66;;;40.35;25.08
69316;BME280;56445;43.552;5.034;2022-09-13T23:52:49;100949.88;;;40.28;25.13
69316;BME280;56445;43.552;5.034;2022-09-13T23:55:19;100947.84;;;40.29;24.85
69316;BME280;56445;43.552;5.034;2022-09-13T23:57:47;100949.88;;;40.35;25.00
